CheckWX is a tool to help pilots better visualize weather data.  It is not intended as a substitute for an official pre-flight weather briefing.

18:37:43 UTC

12N METAR
Aeroflex-Andover Airport
Andover, New Jersey, USA
Current

44 mins ago

K12N 261754Z AUTO VRB05KT 07/M14 A3027 RMK AO1 SLP259 T00671139 10067 21022 58008
Observed
Mar-26 @ 17:54 UTC
Wind
  • Variable at 5 KTS
Visibility
Temperature
C / 45°F
Dewpoint
-14°C / 7°F
Humidity
21%
Altimeter
30.27" Hg
Pressure
1025.9 hPa
Previous

2 hours ago

K12N 261654Z AUTO VRB06KT 06/M14 A3028 RMK AO1 SLP263 T00561144
Observed
Mar-26 @ 16:54 UTC
Wind
  • Variable at 6 KTS
Visibility
Temperature
C / 43°F
Dewpoint
-14°C / 7°F
Humidity
22%
Altimeter
30.28" Hg
Pressure
1026.3 hPa
Previous

3 hours ago

K12N 261554Z AUTO VRB04G14KT 04/M14 A3029 RMK AO1 SLP267 T00391144
Observed
Mar-26 @ 15:54 UTC
Wind
  • Variable at 4 KTS
  • Gusting to 14 KTS
Visibility
Temperature
C / 39°F
Dewpoint
-14°C / 7°F
Humidity
26%
Altimeter
30.29" Hg
Pressure
1026.7 hPa